sensor_id;sensor_type;location;lat;lon;timestamp;P1;durP1;ratioP1;P2;durP2;ratioP2
12601;SDS011;30282;16.436;99.370;2024-01-15T00:01:58;69.80;;;51.80;;
12601;SDS011;30282;16.436;99.370;2024-01-15T00:04:30;50.67;;;35.77;;
12601;SDS011;30282;16.436;99.370;2024-01-15T00:07:03;44.03;;;33.20;;
12601;SDS011;30282;16.436;99.370;2024-01-15T00:09:33;61.20;;;39.57;;
12601;SDS011;30282;16.436;99.370;2024-01-15T00:12:10;95.07;;;39.13;;
12601;SDS011;30282;16.436;99.370;2024-01-15T00:14:39;56.60;;;39.93;;
12601;SDS011;30282;16.436;99.370;2024-01-15T00:17:08;62.67;;;40.00;;
12601;SDS011;30282;16.436;99.370;2024-01-15T00:19:38;56.57;;;38.80;;
12601;SDS011;30282;16.436;99.370;2024-01-15T00:22:11;53.13;;;36.37;;
12601;SDS011;30282;16.436;99.370;2024-01-15T00:24:43;66.93;;;40.50;;
12601;SDS011;30282;16.436;99.370;2024-01-15T00:27:14;106.93;;;40.10;;
12601;SDS011;30282;16.436;99.370;2024-01-15T00:29:45;54.03;;;35.70;;
12601;SDS011;30282;16.436;99.370;2024-01-15T00:32:16;73.10;;;38.07;;
12601;SDS011;30282;16.436;99.370;2024-01-15T00:34:45;52.33;;;38.27;;
12601;SDS011;30282;16.436;99.370;2024-01-15T00:37:15;63.60;;;35.90;;
12601;SDS011;30282;16.436;99.370;2024-01-15T00:39:47;52.77;;;33.07;;
12601;SDS011;30282;16.436;99.370;2024-01-15T00:42:18;54.03;;;37.03;;
12601;SDS011;30282;16.436;99.370;2024-01-15T00:44:48;51.93;;;36.10;;
12601;SDS011;30282;16.436;99.370;2024-01-15T00:47:18;54.33;;;34.63;;
12601;SDS011;30282;16.436;99.370;2024-01-15T00:49:47;75.00;;;35.40;;
12601;SDS011;30282;16.436;99.370;2024-01-15T00:52:21;56.73;;;31.30;;
12601;SDS011;30282;16.436;99.370;2024-01-15T00:54:51;49.93;;;31.97;;
12601;SDS011;30282;16.436;99.370;2024-01-15T00:57:22;54.90;;;33.57;;
12601;SDS011;30282;16.436;99.370;2024-01-15T00:59:57;58.37;;;37.90;;
12601;SDS011;30282;16.436;99.370;2024-01-15T01:02:32;64.53;;;36.60;;
12601;SDS011;30282;16.436;99.370;2024-01-15T01:05:04;64.53;;;35.07;;
12601;SDS011;30282;16.436;99.370;2024-01-15T01:07:33;71.10;;;40.27;;
12601;SDS011;30282;16.436;99.370;2024-01-15T01:10:03;52.60;;;31.53;;
12601;SDS011;30282;16.436;99.370;2024-01-15T01:12:40;51.90;;;30.40;;
12601;SDS011;30282;16.436;99.370;2024-01-15T01:15:12;37.17;;;25.43;;
12601;SDS011;30282;16.436;99.370;2024-01-15T01:17:42;47.67;;;26.97;;
12601;SDS011;30282;16.436;99.370;2024-01-15T01:20:14;32.73;;;23.47;;
12601;SDS011;30282;16.436;99.370;2024-01-15T01:22:48;38.20;;;24.53;;
12601;SDS011;30282;16.436;99.370;2024-01-15T01:25:17;34.23;;;23.87;;
12601;SDS011;30282;16.436;99.370;2024-01-15T01:27:49;43.87;;;25.47;;
12601;SDS011;30282;16.436;99.370;2024-01-15T01:30:18;43.10;;;25.63;;
12601;SDS011;30282;16.436;99.370;2024-01-15T01:32:47;32.80;;;22.47;;
12601;SDS011;30282;16.436;99.370;2024-01-15T01:35:20;41.60;;;23.87;;
12601;SDS011;30282;16.436;99.370;2024-01-15T01:37:50;39.50;;;22.30;;
12601;SDS011;30282;16.436;99.370;2024-01-15T01:40:19;33.10;;;24.00;;
12601;SDS011;30282;16.436;99.370;2024-01-15T01:42:51;38.43;;;23.87;;
12601;SDS011;30282;16.436;99.370;2024-01-15T01:45:23;38.10;;;22.03;;
12601;SDS011;30282;16.436;99.370;2024-01-15T01:47:55;37.20;;;22.77;;
12601;SDS011;30282;16.436;99.370;2024-01-15T01:50:32;35.53;;;23.27;;
12601;SDS011;30282;16.436;99.370;2024-01-15T01:53:14;29.10;;;20.80;;
12601;SDS011;30282;16.436;99.370;2024-01-15T01:55:43;32.10;;;22.73;;
12601;SDS011;30282;16.436;99.370;2024-01-15T01:58:18;32.77;;;23.40;;
12601;SDS011;30282;16.436;99.370;2024-01-15T02:00:49;32.40;;;21.67;;
12601;SDS011;30282;16.436;99.370;2024-01-15T02:03:21;29.27;;;23.07;;
12601;SDS011;30282;16.436;99.370;2024-01-15T02:05:51;42.23;;;23.37;;
12601;SDS011;30282;16.436;99.370;2024-01-15T02:08:21;34.73;;;23.27;;
12601;SDS011;30282;16.436;99.370;2024-01-15T02:10:55;36.90;;;24.50;;
12601;SDS011;30282;16.436;99.370;2024-01-15T02:13:29;37.93;;;25.00;;
12601;SDS011;30282;16.436;99.370;2024-01-15T02:15:59;34.90;;;23.83;;
12601;SDS011;30282;16.436;99.370;2024-01-15T02:18:37;39.53;;;22.60;;
12601;SDS011;30282;16.436;99.370;2024-01-15T02:21:14;38.00;;;24.87;;
12601;SDS011;30282;16.436;99.370;2024-01-15T02:23:45;37.00;;;24.10;;
12601;SDS011;30282;16.436;99.370;2024-01-15T02:26:17;39.70;;;23.83;;
12601;SDS011;30282;16.436;99.370;2024-01-15T02:28:46;40.33;;;29.97;;
12601;SDS011;30282;16.436;99.370;2024-01-15T02:31:19;49.77;;;29.93;;
12601;SDS011;30282;16.436;99.370;2024-01-15T02:33:58;42.17;;;28.10;;
12601;SDS011;30282;16.436;99.370;2024-01-15T02:36:31;51.00;;;28.80;;
12601;SDS011;30282;16.436;99.370;2024-01-15T02:39:04;44.67;;;29.63;;
12601;SDS011;30282;16.436;99.370;2024-01-15T02:41:39;46.20;;;29.97;;
12601;SDS011;30282;16.436;99.370;2024-01-15T02:44:13;48.17;;;35.30;;
12601;SDS011;30282;16.436;99.370;2024-01-15T02:46:42;48.03;;;32.33;;
12601;SDS011;30282;16.436;99.370;2024-01-15T02:49:11;48.67;;;33.80;;
12601;SDS011;30282;16.436;99.370;2024-01-15T02:51:40;47.13;;;33.00;;
12601;SDS011;30282;16.436;99.370;2024-01-15T02:54:11;45.53;;;33.93;;
12601;SDS011;30282;16.436;99.370;2024-01-15T02:56:40;48.60;;;33.40;;
12601;SDS011;30282;16.436;99.370;2024-01-15T02:59:13;38.10;;;29.37;;
12601;SDS011;30282;16.436;99.370;2024-01-15T03:01:42;44.70;;;31.60;;
12601;SDS011;30282;16.436;99.370;2024-01-15T03:04:11;38.60;;;28.50;;
12601;SDS011;30282;16.436;99.370;2024-01-15T03:06:40;52.80;;;31.20;;
12601;SDS011;30282;16.436;99.370;2024-01-15T03:09:11;45.37;;;30.83;;
12601;SDS011;30282;16.436;99.370;2024-01-15T03:11:40;142.07;;;35.13;;
12601;SDS011;30282;16.436;99.370;2024-01-15T03:14:10;174.77;;;34.63;;
12601;SDS011;30282;16.436;99.370;2024-01-15T03:16:39;42.93;;;27.53;;
12601;SDS011;30282;16.436;99.370;2024-01-15T03:19:08;45.70;;;30.80;;
12601;SDS011;30282;16.436;99.370;2024-01-15T03:21:38;58.73;;;28.23;;
12601;SDS011;30282;16.436;99.370;2024-01-15T03:24:07;38.87;;;25.93;;
12601;SDS011;30282;16.436;99.370;2024-01-15T03:26:38;103.50;;;31.23;;
12601;SDS011;30282;16.436;99.370;2024-01-15T03:29:07;45.00;;;27.53;;
12601;SDS011;30282;16.436;99.370;2024-01-15T03:31:37;55.13;;;31.00;;
12601;SDS011;30282;16.436;99.370;2024-01-15T03:34:08;38.80;;;29.43;;
12601;SDS011;30282;16.436;99.370;2024-01-15T03:36:38;40.53;;;29.83;;
12601;SDS011;30282;16.436;99.370;2024-01-15T03:39:07;51.43;;;28.50;;
12601;SDS011;30282;16.436;99.370;2024-01-15T03:41:39;119.37;;;34.60;;
12601;SDS011;30282;16.436;99.370;2024-01-15T03:44:08;36.10;;;25.97;;
12601;SDS011;30282;16.436;99.370;2024-01-15T03:46:37;82.60;;;30.60;;
12601;SDS011;30282;16.436;99.370;2024-01-15T03:49:06;43.13;;;28.30;;
12601;SDS011;30282;16.436;99.370;2024-01-15T03:51:35;49.90;;;27.90;;
12601;SDS011;30282;16.436;99.370;2024-01-15T03:54:05;58.67;;;29.07;;
12601;SDS011;30282;16.436;99.370;2024-01-15T03:56:34;44.30;;;29.80;;
12601;SDS011;30282;16.436;99.370;2024-01-15T03:59:05;43.90;;;29.57;;
12601;SDS011;30282;16.436;99.370;2024-01-15T04:01:34;176.13;;;31.43;;
12601;SDS011;30282;16.436;99.370;2024-01-15T04:04:04;109.53;;;29.40;;
12601;SDS011;30282;16.436;99.370;2024-01-15T04:06:33;38.57;;;25.70;;
12601;SDS011;30282;16.436;99.370;2024-01-15T04:09:02;41.20;;;18.30;;
12601;SDS011;30282;16.436;99.370;2024-01-15T04:11:31;29.73;;;19.87;;
12601;SDS011;30282;16.436;99.370;2024-01-15T04:14:01;29.57;;;19.77;;
12601;SDS011;30282;16.436;99.370;2024-01-15T04:16:31;29.57;;;18.90;;
12601;SDS011;30282;16.436;99.370;2024-01-15T04:19:01;31.10;;;19.27;;
12601;SDS011;30282;16.436;99.370;2024-01-15T04:21:30;32.73;;;21.73;;
12601;SDS011;30282;16.436;99.370;2024-01-15T04:23:59;31.97;;;22.30;;
12601;SDS011;30282;16.436;99.370;2024-01-15T04:26:28;58.47;;;21.83;;
12601;SDS011;30282;16.436;99.370;2024-01-15T04:29:03;104.63;;;26.30;;
12601;SDS011;30282;16.436;99.370;2024-01-15T04:31:34;65.50;;;22.37;;
12601;SDS011;30282;16.436;99.370;2024-01-15T04:34:03;94.80;;;25.40;;
12601;SDS011;30282;16.436;99.370;2024-01-15T04:36:38;27.60;;;17.67;;
12601;SDS011;30282;16.436;99.370;2024-01-15T04:39:09;30.50;;;19.63;;
12601;SDS011;30282;16.436;99.370;2024-01-15T04:41:39;90.40;;;20.53;;
12601;SDS011;30282;16.436;99.370;2024-01-15T04:44:08;37.33;;;18.53;;
12601;SDS011;30282;16.436;99.370;2024-01-15T04:46:39;25.40;;;17.80;;
12601;SDS011;30282;16.436;99.370;2024-01-15T04:49:10;32.83;;;19.17;;
12601;SDS011;30282;16.436;99.370;2024-01-15T04:51:40;33.43;;;19.23;;
12601;SDS011;30282;16.436;99.370;2024-01-15T04:54:09;28.13;;;17.53;;
12601;SDS011;30282;16.436;99.370;2024-01-15T04:56:39;27.17;;;17.67;;
12601;SDS011;30282;16.436;99.370;2024-01-15T04:59:10;24.50;;;15.13;;
12601;SDS011;30282;16.436;99.370;2024-01-15T05:01:43;24.20;;;14.33;;
12601;SDS011;30282;16.436;99.370;2024-01-15T05:04:13;22.00;;;13.00;;
12601;SDS011;30282;16.436;99.370;2024-01-15T05:06:42;20.87;;;10.33;;
12601;SDS011;30282;16.436;99.370;2024-01-15T05:09:14;22.03;;;9.90;;
12601;SDS011;30282;16.436;99.370;2024-01-15T05:11:43;18.40;;;8.90;;
12601;SDS011;30282;16.436;99.370;2024-01-15T05:14:12;42.70;;;10.43;;
12601;SDS011;30282;16.436;99.370;2024-01-15T05:16:48;15.07;;;9.20;;
12601;SDS011;30282;16.436;99.370;2024-01-15T05:19:18;16.13;;;9.10;;
12601;SDS011;30282;16.436;99.370;2024-01-15T05:21:52;21.50;;;10.07;;
12601;SDS011;30282;16.436;99.370;2024-01-15T05:24:22;39.43;;;11.10;;
12601;SDS011;30282;16.436;99.370;2024-01-15T05:26:52;19.53;;;9.33;;
12601;SDS011;30282;16.436;99.370;2024-01-15T05:29:21;19.83;;;10.50;;
12601;SDS011;30282;16.436;99.370;2024-01-15T05:31:54;16.57;;;10.33;;
12601;SDS011;30282;16.436;99.370;2024-01-15T05:34:23;18.80;;;10.90;;
12601;SDS011;30282;16.436;99.370;2024-01-15T05:36:53;37.23;;;12.07;;
12601;SDS011;30282;16.436;99.370;2024-01-15T05:39:22;26.60;;;12.67;;
12601;SDS011;30282;16.436;99.370;2024-01-15T05:41:51;19.10;;;12.27;;
12601;SDS011;30282;16.436;99.370;2024-01-15T05:44:23;21.53;;;12.70;;
12601;SDS011;30282;16.436;99.370;2024-01-15T05:46:54;31.93;;;13.00;;
12601;SDS011;30282;16.436;99.370;2024-01-15T05:49:25;57.70;;;13.60;;
12601;SDS011;30282;16.436;99.370;2024-01-15T05:51:55;27.83;;;12.03;;
12601;SDS011;30282;16.436;99.370;2024-01-15T05:54:30;17.57;;;12.00;;
12601;SDS011;30282;16.436;99.370;2024-01-15T05:57:03;20.00;;;11.60;;
12601;SDS011;30282;16.436;99.370;2024-01-15T05:59:34;24.63;;;11.67;;
12601;SDS011;30282;16.436;99.370;2024-01-15T06:02:05;21.73;;;11.37;;
12601;SDS011;30282;16.436;99.370;2024-01-15T06:04:34;16.87;;;11.90;;
12601;SDS011;30282;16.436;99.370;2024-01-15T06:07:04;24.60;;;12.80;;
12601;SDS011;30282;16.436;99.370;2024-01-15T06:09:33;20.20;;;12.30;;
12601;SDS011;30282;16.436;99.370;2024-01-15T06:12:04;16.60;;;11.17;;
12601;SDS011;30282;16.436;99.370;2024-01-15T06:14:40;18.17;;;11.60;;
12601;SDS011;30282;16.436;99.370;2024-01-15T06:17:11;17.67;;;12.90;;
12601;SDS011;30282;16.436;99.370;2024-01-15T06:19:40;23.67;;;12.50;;
12601;SDS011;30282;16.436;99.370;2024-01-15T06:22:09;19.20;;;12.00;;
12601;SDS011;30282;16.436;99.370;2024-01-15T06:24:41;22.30;;;12.07;;
12601;SDS011;30282;16.436;99.370;2024-01-15T06:27:16;43.80;;;13.57;;
12601;SDS011;30282;16.436;99.370;2024-01-15T06:29:49;32.93;;;11.53;;
12601;SDS011;30282;16.436;99.370;2024-01-15T06:32:21;16.73;;;10.67;;
12601;SDS011;30282;16.436;99.370;2024-01-15T06:34:50;19.57;;;10.97;;
12601;SDS011;30282;16.436;99.370;2024-01-15T06:37:21;22.73;;;10.17;;
12601;SDS011;30282;16.436;99.370;2024-01-15T06:39:50;27.87;;;10.77;;
12601;SDS011;30282;16.436;99.370;2024-01-15T06:42:20;19.17;;;11.13;;
12601;SDS011;30282;16.436;99.370;2024-01-15T06:44:49;15.67;;;10.43;;
12601;SDS011;30282;16.436;99.370;2024-01-15T06:47:20;23.73;;;11.67;;
12601;SDS011;30282;16.436;99.370;2024-01-15T06:49:49;136.00;;;18.97;;
12601;SDS011;30282;16.436;99.370;2024-01-15T06:52:20;13.20;;;9.70;;
12601;SDS011;30282;16.436;99.370;2024-01-15T06:54:55;15.90;;;9.90;;
12601;SDS011;30282;16.436;99.370;2024-01-15T06:57:25;18.63;;;10.10;;
12601;SDS011;30282;16.436;99.370;2024-01-15T06:59:54;16.67;;;10.10;;
12601;SDS011;30282;16.436;99.370;2024-01-15T07:02:25;13.00;;;9.27;;
12601;SDS011;30282;16.436;99.370;2024-01-15T07:04:54;66.90;;;12.77;;
12601;SDS011;30282;16.436;99.370;2024-01-15T07:07:23;16.53;;;9.50;;
12601;SDS011;30282;16.436;99.370;2024-01-15T07:09:56;98.37;;;14.10;;
12601;SDS011;30282;16.436;99.370;2024-01-15T07:12:27;16.70;;;10.20;;
12601;SDS011;30282;16.436;99.370;2024-01-15T07:14:56;22.70;;;10.57;;
12601;SDS011;30282;16.436;99.370;2024-01-15T07:17:30;16.20;;;10.20;;
12601;SDS011;30282;16.436;99.370;2024-01-15T07:19:59;26.30;;;10.90;;
12601;SDS011;30282;16.436;99.370;2024-01-15T07:22:29;18.73;;;11.17;;
12601;SDS011;30282;16.436;99.370;2024-01-15T07:24:58;20.50;;;10.77;;
12601;SDS011;30282;16.436;99.370;2024-01-15T07:27:28;22.63;;;10.67;;
12601;SDS011;30282;16.436;99.370;2024-01-15T07:29:57;21.47;;;8.63;;
12601;SDS011;30282;16.436;99.370;2024-01-15T07:32:26;16.60;;;10.10;;
12601;SDS011;30282;16.436;99.370;2024-01-15T07:35:00;20.60;;;8.13;;
12601;SDS011;30282;16.436;99.370;2024-01-15T07:37:30;16.73;;;9.90;;
12601;SDS011;30282;16.436;99.370;2024-01-15T07:39:59;19.30;;;9.87;;
12601;SDS011;30282;16.436;99.370;2024-01-15T07:42:34;15.90;;;8.30;;
12601;SDS011;30282;16.436;99.370;2024-01-15T07:45:04;14.33;;;9.10;;
12601;SDS011;30282;16.436;99.370;2024-01-15T07:47:37;27.97;;;10.13;;
12601;SDS011;30282;16.436;99.370;2024-01-15T07:50:07;20.87;;;9.90;;
12601;SDS011;30282;16.436;99.370;2024-01-15T07:52:36;14.50;;;9.27;;
12601;SDS011;30282;16.436;99.370;2024-01-15T07:55:05;13.10;;;8.67;;
12601;SDS011;30282;16.436;99.370;2024-01-15T07:57:35;13.90;;;8.57;;
12601;SDS011;30282;16.436;99.370;2024-01-15T08:00:05;13.20;;;9.03;;
12601;SDS011;30282;16.436;99.370;2024-01-15T08:02:38;17.93;;;9.30;;
12601;SDS011;30282;16.436;99.370;2024-01-15T08:05:07;13.93;;;8.47;;
12601;SDS011;30282;16.436;99.370;2024-01-15T08:07:36;18.37;;;9.30;;
12601;SDS011;30282;16.436;99.370;2024-01-15T08:10:06;17.80;;;9.93;;
12601;SDS011;30282;16.436;99.370;2024-01-15T08:12:35;15.00;;;9.00;;
12601;SDS011;30282;16.436;99.370;2024-01-15T08:15:05;18.07;;;9.30;;
12601;SDS011;30282;16.436;99.370;2024-01-15T08:17:41;47.47;;;9.60;;
12601;SDS011;30282;16.436;99.370;2024-01-15T08:20:12;16.60;;;9.33;;
12601;SDS011;30282;16.436;99.370;2024-01-15T08:22:42;12.37;;;8.00;;
12601;SDS011;30282;16.436;99.370;2024-01-15T08:25:11;19.03;;;10.10;;
12601;SDS011;30282;16.436;99.370;2024-01-15T08:27:40;17.47;;;9.43;;
12601;SDS011;30282;16.436;99.370;2024-01-15T08:30:14;20.77;;;9.10;;
12601;SDS011;30282;16.436;99.370;2024-01-15T08:32:46;18.30;;;9.30;;
12601;SDS011;30282;16.436;99.370;2024-01-15T08:35:15;22.23;;;8.87;;
12601;SDS011;30282;16.436;99.370;2024-01-15T08:37:48;16.03;;;7.93;;
12601;SDS011;30282;16.436;99.370;2024-01-15T08:40:17;14.07;;;8.07;;
12601;SDS011;30282;16.436;99.370;2024-01-15T08:42:47;11.63;;;7.43;;
12601;SDS011;30282;16.436;99.370;2024-01-15T08:45:16;10.60;;;7.00;;
12601;SDS011;30282;16.436;99.370;2024-01-15T08:47:47;17.27;;;7.80;;
12601;SDS011;30282;16.436;99.370;2024-01-15T08:50:22;12.10;;;8.50;;
12601;SDS011;30282;16.436;99.370;2024-01-15T08:52:51;12.00;;;7.07;;
12601;SDS011;30282;16.436;99.370;2024-01-15T08:55:21;11.80;;;6.83;;
12601;SDS011;30282;16.436;99.370;2024-01-15T08:57:50;14.13;;;6.60;;
12601;SDS011;30282;16.436;99.370;2024-01-15T09:00:22;13.40;;;6.13;;
12601;SDS011;30282;16.436;99.370;2024-01-15T09:02:53;12.77;;;6.53;;
12601;SDS011;30282;16.436;99.370;2024-01-15T09:05:25;12.13;;;6.07;;
12601;SDS011;30282;16.436;99.370;2024-01-15T09:07:57;10.30;;;5.87;;
12601;SDS011;30282;16.436;99.370;2024-01-15T09:10:26;15.50;;;7.40;;
12601;SDS011;30282;16.436;99.370;2024-01-15T09:12:55;19.00;;;6.50;;
12601;SDS011;30282;16.436;99.370;2024-01-15T09:15:27;12.87;;;6.27;;
12601;SDS011;30282;16.436;99.370;2024-01-15T09:17:58;11.80;;;6.37;;
12601;SDS011;30282;16.436;99.370;2024-01-15T09:20:31;12.47;;;6.60;;
12601;SDS011;30282;16.436;99.370;2024-01-15T09:23:01;12.63;;;6.33;;
12601;SDS011;30282;16.436;99.370;2024-01-15T09:25:33;16.20;;;6.63;;
12601;SDS011;30282;16.436;99.370;2024-01-15T09:28:02;15.70;;;7.27;;
12601;SDS011;30282;16.436;99.370;2024-01-15T09:30:35;11.03;;;6.37;;
12601;SDS011;30282;16.436;99.370;2024-01-15T09:33:08;12.60;;;6.10;;
12601;SDS011;30282;16.436;99.370;2024-01-15T09:35:37;15.43;;;6.43;;
12601;SDS011;30282;16.436;99.370;2024-01-15T09:38:07;16.73;;;6.97;;
12601;SDS011;30282;16.436;99.370;2024-01-15T09:40:36;15.87;;;7.00;;
12601;SDS011;30282;16.436;99.370;2024-01-15T09:43:10;18.90;;;7.87;;
12601;SDS011;30282;16.436;99.370;2024-01-15T09:45:40;15.63;;;7.10;;
12601;SDS011;30282;16.436;99.370;2024-01-15T09:48:12;13.30;;;7.30;;
12601;SDS011;30282;16.436;99.370;2024-01-15T09:50:43;19.90;;;7.53;;
12601;SDS011;30282;16.436;99.370;2024-01-15T09:53:13;12.97;;;7.80;;
12601;SDS011;30282;16.436;99.370;2024-01-15T09:55:44;19.13;;;7.93;;
12601;SDS011;30282;16.436;99.370;2024-01-15T09:58:18;17.13;;;6.80;;
12601;SDS011;30282;16.436;99.370;2024-01-15T10:00:48;22.63;;;8.50;;
12601;SDS011;30282;16.436;99.370;2024-01-15T10:03:20;22.53;;;9.90;;
12601;SDS011;30282;16.436;99.370;2024-01-15T10:05:50;23.60;;;8.87;;
12601;SDS011;30282;16.436;99.370;2024-01-15T10:08:24;21.43;;;8.80;;
12601;SDS011;30282;16.436;99.370;2024-01-15T10:10:59;16.80;;;8.17;;
12601;SDS011;30282;16.436;99.370;2024-01-15T10:13:30;25.13;;;9.27;;
12601;SDS011;30282;16.436;99.370;2024-01-15T10:16:00;16.57;;;8.53;;
12601;SDS011;30282;16.436;99.370;2024-01-15T10:18:32;19.53;;;8.67;;
12601;SDS011;30282;16.436;99.370;2024-01-15T10:21:02;18.97;;;10.10;;
12601;SDS011;30282;16.436;99.370;2024-01-15T10:23:32;18.23;;;9.40;;
12601;SDS011;30282;16.436;99.370;2024-01-15T10:26:01;15.87;;;8.83;;
12601;SDS011;30282;16.436;99.370;2024-01-15T10:28:40;19.83;;;9.17;;
12601;SDS011;30282;16.436;99.370;2024-01-15T10:31:10;24.50;;;10.27;;
12601;SDS011;30282;16.436;99.370;2024-01-15T10:33:41;22.50;;;10.60;;
12601;SDS011;30282;16.436;99.370;2024-01-15T10:36:10;27.70;;;12.47;;
12601;SDS011;30282;16.436;99.370;2024-01-15T10:38:40;24.03;;;10.10;;
12601;SDS011;30282;16.436;99.370;2024-01-15T10:41:09;20.60;;;11.07;;
12601;SDS011;30282;16.436;99.370;2024-01-15T10:43:39;26.37;;;12.47;;
12601;SDS011;30282;16.436;99.370;2024-01-15T10:46:08;23.87;;;12.10;;
12601;SDS011;30282;16.436;99.370;2024-01-15T10:48:38;25.57;;;10.57;;
12601;SDS011;30282;16.436;99.370;2024-01-15T10:51:10;21.20;;;11.23;;
12601;SDS011;30282;16.436;99.370;2024-01-15T10:53:41;25.13;;;10.80;;
12601;SDS011;30282;16.436;99.370;2024-01-15T10:56:13;25.40;;;10.97;;
12601;SDS011;30282;16.436;99.370;2024-01-15T10:58:43;35.33;;;11.20;;
12601;SDS011;30282;16.436;99.370;2024-01-15T11:01:17;23.50;;;11.33;;
12601;SDS011;30282;16.436;99.370;2024-01-15T11:03:48;28.73;;;10.60;;
12601;SDS011;30282;16.436;99.370;2024-01-15T11:06:18;25.60;;;10.13;;
12601;SDS011;30282;16.436;99.370;2024-01-15T11:08:50;29.53;;;11.13;;
12601;SDS011;30282;16.436;99.370;2024-01-15T11:11:25;25.07;;;10.53;;
12601;SDS011;30282;16.436;99.370;2024-01-15T11:13:55;25.10;;;10.60;;
12601;SDS011;30282;16.436;99.370;2024-01-15T11:19:28;19.83;;;9.40;;
12601;SDS011;30282;16.436;99.370;2024-01-15T11:22:10;50.00;;;25.60;;
12601;SDS011;30282;16.436;99.370;2024-01-15T11:25:13;90.40;;;53.97;;
12601;SDS011;30282;16.436;99.370;2024-01-15T11:27:43;46.87;;;25.53;;
12601;SDS011;30282;16.436;99.370;2024-01-15T11:30:13;46.43;;;26.27;;
12601;SDS011;30282;16.436;99.370;2024-01-15T11:32:43;50.53;;;27.53;;
12601;SDS011;30282;16.436;99.370;2024-01-15T11:35:14;50.33;;;18.70;;
12601;SDS011;30282;16.436;99.370;2024-01-15T11:37:59;30.20;;;17.40;;
12601;SDS011;30282;16.436;99.370;2024-01-15T11:40:38;36.43;;;14.87;;
12601;SDS011;30282;16.436;99.370;2024-01-15T11:43:14;24.20;;;12.07;;
12601;SDS011;30282;16.436;99.370;2024-01-15T11:45:47;31.47;;;13.20;;
12601;SDS011;30282;16.436;99.370;2024-01-15T11:48:23;30.57;;;12.10;;
12601;SDS011;30282;16.436;99.370;2024-01-15T11:51:10;26.40;;;12.03;;
12601;SDS011;30282;16.436;99.370;2024-01-15T11:53:47;26.13;;;11.83;;
12601;SDS011;30282;16.436;99.370;2024-01-15T11:56:20;24.50;;;11.03;;
12601;SDS011;30282;16.436;99.370;2024-01-15T11:58:51;44.57;;;13.50;;
12601;SDS011;30282;16.436;99.370;2024-01-15T12:01:31;20.87;;;10.37;;
12601;SDS011;30282;16.436;99.370;2024-01-15T12:04:01;37.73;;;12.60;;
12601;SDS011;30282;16.436;99.370;2024-01-15T12:06:36;22.80;;;11.10;;
12601;SDS011;30282;16.436;99.370;2024-01-15T12:09:06;38.53;;;11.77;;
12601;SDS011;30282;16.436;99.370;2024-01-15T12:11:38;36.33;;;12.70;;
12601;SDS011;30282;16.436;99.370;2024-01-15T12:14:14;24.40;;;11.57;;
12601;SDS011;30282;16.436;99.370;2024-01-15T12:16:44;36.47;;;11.97;;
12601;SDS011;30282;16.436;99.370;2024-01-15T12:19:16;30.93;;;12.13;;
12601;SDS011;30282;16.436;99.370;2024-01-15T12:21:47;21.03;;;11.40;;
12601;SDS011;30282;16.436;99.370;2024-01-15T12:24:18;16.23;;;11.17;;
12601;SDS011;30282;16.436;99.370;2024-01-15T12:26:47;20.57;;;9.47;;
12601;SDS011;30282;16.436;99.370;2024-01-15T12:29:22;19.33;;;10.27;;
12601;SDS011;30282;16.436;99.370;2024-01-15T12:31:51;27.67;;;11.63;;
12601;SDS011;30282;16.436;99.370;2024-01-15T12:34:21;36.37;;;13.53;;
12601;SDS011;30282;16.436;99.370;2024-01-15T12:36:56;23.33;;;12.43;;
12601;SDS011;30282;16.436;99.370;2024-01-15T12:39:28;32.07;;;13.33;;
12601;SDS011;30282;16.436;99.370;2024-01-15T12:41:58;28.80;;;12.97;;
12601;SDS011;30282;16.436;99.370;2024-01-15T12:44:28;32.80;;;13.60;;
12601;SDS011;30282;16.436;99.370;2024-01-15T12:47:09;20.63;;;13.20;;
12601;SDS011;30282;16.436;99.370;2024-01-15T12:49:38;35.00;;;14.60;;
12601;SDS011;30282;16.436;99.370;2024-01-15T12:52:09;31.90;;;16.43;;
12601;SDS011;30282;16.436;99.370;2024-01-15T12:54:43;48.13;;;15.93;;
12601;SDS011;30282;16.436;99.370;2024-01-15T12:57:15;37.47;;;16.83;;
12601;SDS011;30282;16.436;99.370;2024-01-15T12:59:48;38.73;;;14.40;;
12601;SDS011;30282;16.436;99.370;2024-01-15T13:02:18;31.03;;;14.80;;
12601;SDS011;30282;16.436;99.370;2024-01-15T13:04:50;30.50;;;14.33;;
12601;SDS011;30282;16.436;99.370;2024-01-15T13:07:21;30.73;;;16.03;;
12601;SDS011;30282;16.436;99.370;2024-01-15T13:09:51;29.87;;;15.93;;
12601;SDS011;30282;16.436;99.370;2024-01-15T13:12:25;34.73;;;20.73;;
12601;SDS011;30282;16.436;99.370;2024-01-15T13:14:58;39.33;;;21.57;;
12601;SDS011;30282;16.436;99.370;2024-01-15T13:17:32;40.27;;;21.10;;
12601;SDS011;30282;16.436;99.370;2024-01-15T13:20:04;39.33;;;22.53;;
12601;SDS011;30282;16.436;99.370;2024-01-15T13:22:52;43.30;;;20.03;;
12601;SDS011;30282;16.436;99.370;2024-01-15T13:25:23;47.23;;;22.97;;
12601;SDS011;30282;16.436;99.370;2024-01-15T13:27:53;46.90;;;25.00;;
12601;SDS011;30282;16.436;99.370;2024-01-15T13:30:24;78.03;;;25.47;;
12601;SDS011;30282;16.436;99.370;2024-01-15T13:32:57;52.43;;;24.93;;
12601;SDS011;30282;16.436;99.370;2024-01-15T13:35:29;49.30;;;23.47;;
12601;SDS011;30282;16.436;99.370;2024-01-15T13:38:00;39.70;;;25.37;;
12601;SDS011;30282;16.436;99.370;2024-01-15T13:40:34;38.47;;;23.43;;
12601;SDS011;30282;16.436;99.370;2024-01-15T13:43:04;41.73;;;23.83;;
12601;SDS011;30282;16.436;99.370;2024-01-15T13:45:34;39.83;;;24.27;;
12601;SDS011;30282;16.436;99.370;2024-01-15T13:48:03;39.10;;;23.47;;
12601;SDS011;30282;16.436;99.370;2024-01-15T13:50:36;44.60;;;23.87;;
12601;SDS011;30282;16.436;99.370;2024-01-15T13:53:09;38.60;;;22.80;;
12601;SDS011;30282;16.436;99.370;2024-01-15T13:55:39;41.63;;;26.27;;
12601;SDS011;30282;16.436;99.370;2024-01-15T13:58:11;52.67;;;25.63;;
12601;SDS011;30282;16.436;99.370;2024-01-15T14:00:40;46.27;;;24.10;;
12601;SDS011;30282;16.436;99.370;2024-01-15T14:03:11;46.03;;;25.87;;
12601;SDS011;30282;16.436;99.370;2024-01-15T14:05:40;47.97;;;26.80;;
12601;SDS011;30282;16.436;99.370;2024-01-15T14:11:01;44.57;;;27.37;;
12601;SDS011;30282;16.436;99.370;2024-01-15T14:13:32;48.10;;;24.57;;
12601;SDS011;30282;16.436;99.370;2024-01-15T14:16:07;41.73;;;23.47;;
12601;SDS011;30282;16.436;99.370;2024-01-15T14:18:44;52.20;;;25.57;;
12601;SDS011;30282;16.436;99.370;2024-01-15T14:21:13;44.27;;;24.53;;
12601;SDS011;30282;16.436;99.370;2024-01-15T14:23:44;40.97;;;22.40;;
12601;SDS011;30282;16.436;99.370;2024-01-15T14:26:14;48.53;;;24.20;;
12601;SDS011;30282;16.436;99.370;2024-01-15T14:28:43;39.03;;;23.27;;
12601;SDS011;30282;16.436;99.370;2024-01-15T14:31:13;46.20;;;23.17;;
12601;SDS011;30282;16.436;99.370;2024-01-15T14:33:42;40.07;;;21.97;;
12601;SDS011;30282;16.436;99.370;2024-01-15T14:36:11;43.13;;;22.70;;
12601;SDS011;30282;16.436;99.370;2024-01-15T14:38:41;37.40;;;22.00;;
12601;SDS011;30282;16.436;99.370;2024-01-15T14:41:12;39.20;;;21.27;;